sensor_id;sensor_type;location;lat;lon;timestamp;P1;durP1;ratioP1;P2;durP2;ratioP2
77955;SDS011;67152;36.266;32.294;2023-07-20T21:06:20;8.15;;;4.57;;
77955;SDS011;67152;36.266;32.294;2023-07-20T21:08:48;12.95;;;4.65;;
77955;SDS011;67152;36.266;32.294;2023-07-20T21:11:15;22.13;;;4.72;;
77955;SDS011;67152;36.266;32.294;2023-07-20T21:13:41;16.67;;;4.25;;
77955;SDS011;67152;36.266;32.294;2023-07-20T21:16:08;17.38;;;4.72;;
77955;SDS011;67152;36.266;32.294;2023-07-20T21:18:35;17.75;;;4.53;;
77955;SDS011;67152;36.266;32.294;2023-07-20T21:21:03;13.48;;;3.50;;
77955;SDS011;67152;36.266;32.294;2023-07-20T21:23:32;17.85;;;4.28;;
77955;SDS011;67152;36.266;32.294;2023-07-20T21:26:03;17.52;;;3.55;;
77955;SDS011;67152;36.266;32.294;2023-07-20T21:28:30;7.43;;;2.88;;
77955;SDS011;67152;36.266;32.294;2023-07-20T21:31:01;10.57;;;3.08;;
77955;SDS011;67152;36.266;32.294;2023-07-20T21:33:30;8.48;;;3.22;;
77955;SDS011;67152;36.266;32.294;2023-07-20T21:35:56;12.95;;;3.30;;
77955;SDS011;67152;36.266;32.294;2023-07-20T21:38:23;13.75;;;3.63;;
77955;SDS011;67152;36.266;32.294;2023-07-20T21:40:50;14.27;;;3.13;;
77955;SDS011;67152;36.266;32.294;2023-07-20T21:43:17;15.88;;;3.67;;
77955;SDS011;67152;36.266;32.294;2023-07-20T21:45:44;19.05;;;3.67;;
77955;SDS011;67152;36.266;32.294;2023-07-20T21:48:10;10.48;;;2.97;;
77955;SDS011;67152;36.266;32.294;2023-07-20T21:50:46;12.20;;;3.28;;
77955;SDS011;67152;36.266;32.294;2023-07-20T21:53:14;9.93;;;2.95;;
77955;SDS011;67152;36.266;32.294;2023-07-20T21:55:45;5.40;;;2.63;;
77955;SDS011;67152;36.266;32.294;2023-07-20T21:58:15;8.32;;;3.13;;
77955;SDS011;67152;36.266;32.294;2023-07-20T22:00:46;11.98;;;3.20;;
77955;SDS011;67152;36.266;32.294;2023-07-20T22:03:23;8.55;;;2.78;;
77955;SDS011;67152;36.266;32.294;2023-07-20T22:05:49;6.47;;;3.00;;
77955;SDS011;67152;36.266;32.294;2023-07-20T22:08:21;7.38;;;2.92;;
77955;SDS011;67152;36.266;32.294;2023-07-20T22:13:17;7.55;;;2.40;;
77955;SDS011;67152;36.266;32.294;2023-07-20T22:15:45;4.88;;;2.50;;
77955;SDS011;67152;36.266;32.294;2023-07-20T22:18:16;11.98;;;2.72;;
77955;SDS011;67152;36.266;32.294;2023-07-20T22:20:44;9.52;;;3.47;;
77955;SDS011;67152;36.266;32.294;2023-07-20T22:23:12;12.23;;;2.95;;
77955;SDS011;67152;36.266;32.294;2023-07-20T22:25:38;13.40;;;3.20;;
77955;SDS011;67152;36.266;32.294;2023-07-20T22:28:05;9.13;;;2.78;;
77955;SDS011;67152;36.266;32.294;2023-07-20T22:30:32;9.55;;;2.55;;
77955;SDS011;67152;36.266;32.294;2023-07-20T22:35:25;8.63;;;3.22;;
77955;SDS011;67152;36.266;32.294;2023-07-20T22:37:51;9.95;;;3.13;;
77955;SDS011;67152;36.266;32.294;2023-07-20T22:40:18;5.63;;;3.05;;
77955;SDS011;67152;36.266;32.294;2023-07-20T22:42:45;10.68;;;3.30;;
77955;SDS011;67152;36.266;32.294;2023-07-20T22:45:13;7.63;;;2.90;;
77955;SDS011;67152;36.266;32.294;2023-07-20T22:47:41;5.85;;;2.88;;
77955;SDS011;67152;36.266;32.294;2023-07-20T22:50:08;9.07;;;2.70;;
77955;SDS011;67152;36.266;32.294;2023-07-20T22:52:36;7.18;;;2.80;;
77955;SDS011;67152;36.266;32.294;2023-07-20T22:55:03;5.20;;;2.90;;
77955;SDS011;67152;36.266;32.294;2023-07-20T22:57:31;8.20;;;2.33;;
77955;SDS011;67152;36.266;32.294;2023-07-20T23:00:00;9.32;;;3.25;;
77955;SDS011;67152;36.266;32.294;2023-07-20T23:02:35;5.75;;;2.20;;
77955;SDS011;67152;36.266;32.294;2023-07-20T23:05:04;6.35;;;2.50;;
77955;SDS011;67152;36.266;32.294;2023-07-20T23:07:32;10.77;;;2.60;;
77955;SDS011;67152;36.266;32.294;2023-07-20T23:09:59;7.28;;;2.78;;
77955;SDS011;67152;36.266;32.294;2023-07-20T23:12:26;6.85;;;3.20;;
77955;SDS011;67152;36.266;32.294;2023-07-20T23:14:55;8.82;;;2.95;;
77955;SDS011;67152;36.266;32.294;2023-07-20T23:17:25;7.30;;;3.17;;
77955;SDS011;67152;36.266;32.294;2023-07-20T23:19:51;6.28;;;2.72;;
77955;SDS011;67152;36.266;32.294;2023-07-20T23:22:18;9.93;;;3.00;;
77955;SDS011;67152;36.266;32.294;2023-07-20T23:24:46;5.80;;;2.88;;
77955;SDS011;67152;36.266;32.294;2023-07-20T23:27:13;13.25;;;3.30;;
77955;SDS011;67152;36.266;32.294;2023-07-20T23:29:40;7.75;;;3.15;;
77955;SDS011;67152;36.266;32.294;2023-07-20T23:34:33;16.58;;;3.70;;
77955;SDS011;67152;36.266;32.294;2023-07-20T23:39:26;9.65;;;3.53;;
77955;SDS011;67152;36.266;32.294;2023-07-20T23:44:21;7.30;;;2.75;;
77955;SDS011;67152;36.266;32.294;2023-07-20T23:46:48;8.77;;;3.08;;
77955;SDS011;67152;36.266;32.294;2023-07-20T23:49:15;6.40;;;3.00;;
77955;SDS011;67152;36.266;32.294;2023-07-20T23:51:41;16.85;;;3.38;;
77955;SDS011;67152;36.266;32.294;2023-07-20T23:54:08;6.15;;;2.92;;
77955;SDS011;67152;36.266;32.294;2023-07-20T23:56:35;10.93;;;2.70;;
77955;SDS011;67152;36.266;32.294;2023-07-20T23:59:01;6.15;;;2.78;;
